Time;durP1;ratioP1;P1;durP2;ratioP2;P2;SDS_P1;SDS_P2;PMS_P1;PMS_P2;Temp;Humidity;BMP_temperature;BMP_pressure;BME280_temperature;BME280_humidity;BME280_pressure;Samples;Min_cycle;Max_cycle;Signal;HPM_P1;HPM_P2
2023/04/01 00:01:19;;;;;;;;;;;;;;;;;;5115965;28;19915;-75
2023/04/01 00:03:45;;;;;;;;;;;;;;;;;;5114755;28;19923;-75
2023/04/01 00:06:13;;;;;;;;;;;10.50;99.90;;;;;;5116005;28;19923;-75
2023/04/01 00:08:39;;;;;;;;;;;10.30;99.90;;;;;;5098719;28;19997;-75
2023/04/01 00:11:05;;;;;;;;;;;10.40;99.90;;;;;;5115517;28;19962;-75
2023/04/01 00:13:30;;;;;;;;;;;10.40;99.90;;;;;;5115574;28;19916;-75
2023/04/01 00:15:56;;;;;;;;;;;;;;;;;;5115474;28;19980;-75
2023/04/01 00:18:22;;;;;;;;;;;;;;;;;;5115075;28;19984;-75
2023/04/01 00:20:48;;;;;;;;;;;;;;;;;;5132630;27;19915;-76
2023/04/01 00:23:14;;;;;;;;;;;;;;;;;;5115513;28;20364;-76
2023/04/01 00:25:40;;;;;;;;;;;;;;;;;;5098405;28;19915;-75
2023/04/01 00:28:06;;;;;;;;;;;10.30;99.90;;;;;;5108431;28;19986;-75
2023/04/01 00:30:32;;;;;;;;;;;;;;;;;;5094853;28;19927;-75
2023/04/01 00:32:58;;;;;;;;;;;;;;;;;;5094663;28;20344;-75
2023/04/01 00:35:24;;;;;;;;;;;10.40;99.90;;;;;;5094828;28;19915;-76
2023/04/01 00:37:50;;;;;;;;;;;;;;;;;;5094461;28;19970;-75
2023/04/01 00:40:24;;;;;;;;;;;10.30;99.90;;;;;;5094646;28;19916;-68
2023/04/01 00:42:50;;;;;;;;;;;;;;;;;;5117470;27;19917;-68
2023/04/01 00:45:38;;;;;;;;;;;10.40;99.90;;;;;;5118124;27;19923;-68
2023/04/01 00:48:07;;;;;;;;;;;10.30;99.90;;;;;;5094273;28;19999;-68
2023/04/01 00:50:33;;;;;;;;;;;;;;;;;;5094443;28;20438;-75
2023/04/01 00:53:00;;;;;;;;;;;10.30;99.90;;;;;;5094423;28;19959;-75
2023/04/01 00:55:26;;;;;;;;;;;;;;;;;;5077474;28;20359;-76
2023/04/01 00:57:52;;;;;;;;;;;10.50;99.90;;;;;;5094405;28;19916;-76
2023/04/01 01:00:18;;;;;;;;;;;10.40;99.90;;;;;;5094453;28;19922;-75
2023/04/01 01:02:45;;;;;;;;;;;;;;;;;;5094092;28;19919;-75
2023/04/01 01:05:11;;;;;;;;;;;;;;;;;;5094322;28;19916;-75
2023/04/01 01:07:37;;;;;;;;;;;;;;;;;;5093946;28;20280;-76
2023/04/01 01:10:02;;;;;;;;;;;10.30;99.90;;;;;;5094237;28;20011;-76
2023/04/01 01:12:28;;;;;;;;;;;;;;;;;;5093820;28;19923;-76
2023/04/01 01:14:54;;;;;;;;;;;;;;;;;;5094055;28;19923;-76
2023/04/01 01:17:20;;;;;;;;;;;;;;;;;;5094546;28;19916;-76
2023/04/01 01:19:48;;;;;;;;;;;;;;;;;;5094211;28;20383;-76
2023/04/01 01:22:22;;;;;;;;;;;10.10;99.90;;;;;;5094211;28;20341;-76
2023/04/01 01:24:59;;;;;;;;;;;10.10;99.90;;;;;;5093589;28;19963;-76
2023/04/01 01:27:26;;;;;;;;;;;10.20;99.90;;;;;;5095116;27;19946;-75
2023/04/01 01:29:52;;;;;;;;;;;;;;;;;;5134451;27;19964;-75
2023/04/01 01:32:18;;;;;;;;;;;;;;;;;;5117312;27;19915;-76
2023/04/01 01:34:44;;;;;;;;;;;;;;;;;;5117257;27;19922;-76
2023/04/01 01:37:12;;;;;;;;;;;10.30;99.90;;;;;;5151811;27;19915;-76
2023/04/01 01:39:39;;;;;;;;;;;10.20;99.90;;;;;;5117303;27;20001;-76
2023/04/01 01:42:07;;;;;;;;;;;10.20;99.90;;;;;;5152288;27;19915;-76
2023/04/01 01:44:32;;;;;;;;;;;;;;;;;;5151707;27;19960;-76
2023/04/01 01:46:59;;;;;;;;;;;;;;;;;;5117440;27;20395;-75
2023/04/01 01:49:25;;;;;;;;;;;;;;;;;;5151445;27;19919;-76
2023/04/01 01:51:51;;;;;;;;;;;;;;;;;;5116906;27;19995;-76
2023/04/01 01:54:17;;;;;;;;;;;;;;;;;;5117164;27;19926;-76
2023/04/01 01:56:43;;;;;;;;;;;;;;;;;;5100526;27;19915;-76
2023/04/01 01:59:09;;;;;;;;;;;;;;;;;;5117059;27;20295;-76
2023/04/01 02:01:35;;;;;;;;;;;;;;;;;;5117106;27;19967;-76
2023/04/01 02:04:01;;;;;;;;;;;;;;;;;;5116658;27;19941;-75
2023/04/01 02:06:26;;;;;;;;;;;;;;;;;;5122157;27;20028;-76
2023/04/01 02:08:52;;;;;;;;;;;;;;;;;;5124227;27;19923;-76
2023/04/01 02:11:19;;;;;;;;;;;;;;;;;;5120814;27;19968;-76
2023/04/01 02:13:45;;;;;;;;;;;;;;;;;;5116719;27;19979;-76
2023/04/01 02:16:20;;;;;;;;;;;9.90;99.90;;;;;;5116574;27;19915;-76
2023/04/01 02:18:48;;;;;;;;;;;10.30;99.90;;;;;;5116301;27;20387;-76
2023/04/01 02:21:14;;;;;;;;;;;;;;;;;;5150727;27;19915;-76
2023/04/01 02:23:40;;;;;;;;;;;;;;;;;;5116649;28;19922;-76
2023/04/01 02:26:06;;;;;;;;;;;;;;;;;;5117090;27;20370;-76
2023/04/01 02:28:32;;;;;;;;;;;;;;;;;;5113055;28;20292;-76
2023/04/01 02:30:58;;;;;;;;;;;;;;;;;;5112568;28;19926;-76
2023/04/01 02:33:24;;;;;;;;;;;;;;;;;;5096039;28;19919;-76
2023/04/01 02:35:50;;;;;;;;;;;;;;;;;;5112913;28;20014;-76
2023/04/01 02:38:16;;;;;;;;;;;;;;;;;;5113163;28;19945;-76
2023/04/01 02:40:46;;;;;;;;;;;10.10;99.90;;;;;;5130068;27;19916;-76
2023/04/01 02:43:12;;;;;;;;;;;10.10;99.90;;;;;;5147676;27;20294;-75
2023/04/01 02:45:38;;;;;;;;;;;;;;;;;;5119784;27;19916;-69
2023/04/01 02:48:04;;;;;;;;;;;;;;;;;;5092763;28;19970;-69
2023/04/01 02:50:30;;;;;;;;;;;;;;;;;;5104981;28;19919;-69
2023/04/01 02:52:56;;;;;;;;;;;;;;;;;;5112732;28;20237;-68
2023/04/01 02:55:22;;;;;;;;;;;;;;;;;;5112759;28;19922;-69
2023/04/01 02:57:48;;;;;;;;;;;;;;;;;;5095846;28;19923;-69
2023/04/01 03:00:14;;;;;;;;;;;;;;;;;;5112754;28;19915;-76
2023/04/01 03:02:40;;;;;;;;;;;;;;;;;;5112260;28;19961;-76
2023/04/01 03:05:06;;;;;;;;;;;;;;;;;;5112711;28;19967;-76
2023/04/01 03:07:32;;;;;;;;;;;9.80;99.90;;;;;;5112867;28;19955;-76
2023/04/01 03:09:58;;;;;;;;;;;9.90;99.90;;;;;;5129825;27;19966;-76
2023/04/01 03:12:24;;;;;;;;;;;10.00;99.90;;;;;;5112508;28;19954;-76
2023/04/01 03:14:49;;;;;;;;;;;10.00;99.90;;;;;;5112534;28;19962;-76
2023/04/01 03:17:15;;;;;;;;;;;;;;;;;;5115405;28;19920;-76
2023/04/01 03:19:41;;;;;;;;;;;;;;;;;;5116218;28;19916;-76
2023/04/01 03:22:07;;;;;;;;;;;;;;;;;;5116549;28;19915;-76
2023/04/01 03:24:33;;;;;;;;;;;;;;;;;;5116601;28;19916;-76
2023/04/01 03:26:59;;;;;;;;;;;;;;;;;;5116552;28;19964;-76
2023/04/01 03:29:25;;;;;;;;;;;;;;;;;;5098584;28;19943;-76
2023/04/01 03:31:51;;;;;;;;;;;;;;;;;;5095863;28;19915;-75
2023/04/01 03:34:17;;;;;;;;;;;10.30;99.90;;;;;;5096389;28;19923;-75
2023/04/01 03:36:43;;;;;;;;;;;;;;;;;;5079381;28;20371;-76
2023/04/01 03:39:09;;;;;;;;;;;;;;;;;;5095924;28;20284;-75
2023/04/01 03:41:35;;;;;;;;;;;;;;;;;;5079092;28;20002;-76
2023/04/01 03:44:01;;;;;;;;;;;;;;;;;;5096165;28;19926;-75
2023/04/01 03:46:27;;;;;;;;;;;;;;;;;;5095185;28;19916;-75
2023/04/01 03:48:53;;;;;;;;;;;;;;;;;;5095761;28;19916;-75
2023/04/01 03:51:19;;;;;;;;;;;;;;;;;;5095385;28;19927;-76
2023/04/01 03:53:45;;;;;;;;;;;9.90;99.90;;;;;;5096029;28;20280;-75
2023/04/01 03:56:10;;;;;;;;;;;10.00;99.90;;;;;;5095225;28;19915;-75
2023/04/01 03:58:36;;;;;;;;;;;;;;;;;;5095331;28;19919;-76
2023/04/01 04:01:02;;;;;;;;;;;;;;;;;;5095166;28;19916;-76
2023/04/01 04:03:28;;;;;;;;;;;;;;;;;;5095266;28;19916;-76
2023/04/01 04:05:56;;;;;;;;;;;;;;;;;;5095587;28;20028;-75
2023/04/01 04:08:21;;;;;;;;;;;10.00;99.90;;;;;;5095482;28;19916;-75
2023/04/01 04:10:47;;;;;;;;;;;10.00;99.90;;;;;;5090532;28;19974;-75
2023/04/01 04:13:13;;;;;;;;;;;9.90;99.90;;;;;;5075100;28;19923;-76
2023/04/01 04:15:39;;;;;;;;;;;10.20;99.90;;;;;;5111714;28;19916;-76
2023/04/01 04:18:04;;;;;;;;;;;9.80;99.90;;;;;;5095157;28;19923;-76
2023/04/01 04:20:30;;;;;;;;;;;;;;;;;;5095023;28;20012;-76
2023/04/01 04:22:56;;;;;;;;;;;;;;;;;;5129621;27;19920;-76
2023/04/01 04:25:22;;;;;;;;;;;;;;;;;;5095999;28;20288;-76
2023/04/01 04:27:49;;;;;;;;;;;;;;;;;;5099518;27;19981;-76
2023/04/01 04:30:15;;;;;;;;;;;9.90;99.90;;;;;;5118597;27;19920;-75
2023/04/01 04:32:41;;;;;;;;;;;10.00;99.90;;;;;;5118422;27;20289;-75
2023/04/01 04:35:07;;;;;;;;;;;10.00;99.90;;;;;;5118974;27;19915;-75
2023/04/01 04:37:33;;;;;;;;;;;9.80;99.90;;;;;;5118037;27;20259;-75
2023/04/01 04:39:59;;;;;;;;;;;;;;;;;;5152995;27;19922;-74
2023/04/01 04:42:24;;;;;;;;;;;9.90;99.90;;;;;;5118410;27;19915;-75
2023/04/01 04:44:50;;;;;;;;;;;10.00;99.90;;;;;;5118328;27;19915;-75
2023/04/01 04:47:16;;;;;;;;;;;;;;;;;;5118104;27;19923;-75
2023/04/01 04:49:42;;;;;;;;;;;;;;;;;;5118089;27;19919;-75
2023/04/01 04:52:08;;;;;;;;;;;;;;;;;;5118165;27;19916;-75
2023/04/01 04:54:34;;;;;;;;;;;;;;;;;;5118355;27;19916;-75
2023/04/01 04:57:00;;;;;;;;;;;;;;;;;;5118543;27;19959;-76
2023/04/01 04:59:26;;;;;;;;;;;;;;;;;;5118512;27;19971;-76
2023/04/01 05:01:52;;;;;;;;;;;;;;;;;;5117865;27;20001;-75
2023/04/01 05:04:18;;;;;;;;;;;;;;;;;;5118382;27;20371;-77
2023/04/01 05:06:44;;;;;;;;;;;;;;;;;;5101122;27;19938;-75
2023/04/01 05:09:10;;;;;;;;;;;10.00;99.90;;;;;;5117928;27;19950;-76
2023/04/01 05:11:36;;;;;;;;;;;;;;;;;;5134963;27;20685;-76
2023/04/01 05:14:02;;;;;;;;;;;10.00;99.90;;;;;;5118171;27;19922;-76
2023/04/01 05:16:28;;;;;;;;;;;;;;;;;;5120457;27;19915;-74
2023/04/01 05:18:53;;;;;;;;;;;10.10;99.90;;;;;;5107008;27;19923;-75
2023/04/01 05:21:19;;;;;;;;;;;;;;;;;;5124272;27;19915;-75
2023/04/01 05:23:45;;;;;;;;;;;10.00;99.90;;;;;;5123401;27;19967;-76
2023/04/01 05:26:11;;;;;;;;;;;;;;;;;;5097151;28;19915;-76
2023/04/01 05:28:38;;;;;;;;;;;;;;;;;;5114394;27;19919;-76
2023/04/01 05:31:04;;;;;;;;;;;10.00;99.90;;;;;;5100300;27;20027;-76
2023/04/01 05:33:30;;;;;;;;;;;10.00;99.90;;;;;;5117653;27;19922;-76
2023/04/01 05:35:55;;;;;;;;;;;10.10;99.90;;;;;;5117763;27;20381;-76
2023/04/01 05:38:21;;;;;;;;;;;10.00;99.90;;;;;;5116520;28;20002;-76
2023/04/01 05:40:47;;;;;;;;;;;;;;;;;;5117283;27;19915;-76
2023/04/01 05:43:13;;;;;;;;;;;;;;;;;;5116955;27;20240;-76
2023/04/01 05:45:39;;;;;;;;;;;;;;;;;;5100021;27;20025;-76
2023/04/01 05:48:05;;;;;;;;;;;;;;;;;;5117133;27;20026;-76
2023/04/01 05:50:31;;;;;;;;;;;;;;;;;;5116591;27;19923;-76
2023/04/01 05:52:57;;;;;;;;;;;9.90;99.90;;;;;;5116896;27;19915;-76
2023/04/01 05:55:22;;;;;;;;;;;;;;;;;;5117468;27;20304;-76
2023/04/01 05:57:49;;;;;;;;;;;;;;;;;;5116854;27;20290;-76
2023/04/01 06:00:15;;;;;;;;;;;;;;;;;;5117057;27;19958;-75
2023/04/01 06:02:42;;;;;;;;;;;;;;;;;;5116582;27;19958;-75
2023/04/01 06:05:08;;;;;;;;;;;;;;;;;;5099938;27;20309;-75
2023/04/01 06:07:34;;;;;;;;;;;;;;;;;;5116994;27;19915;-75
2023/04/01 06:10:00;;;;;;;;;;;10.00;99.90;;;;;;5116997;27;20363;-74
2023/04/01 06:12:26;;;;;;;;;;;;;;;;;;5116814;27;21014;-75
2023/04/01 06:14:59;;;;;;;;;;;9.80;99.90;;;;;;5116996;27;19915;-76
2023/04/01 06:17:25;;;;;;;;;;;;;;;;;;5149517;27;19994;-77
2023/04/01 06:19:51;;;;;;;;;;;;;;;;;;5116788;27;19990;-76
2023/04/01 06:22:37;;;;;;;;;;;10.10;99.90;;;;;;5116762;27;19919;-76
2023/04/01 06:25:05;;;;;;;;;;;;;;;;;;5115116;27;19915;-76
2023/04/01 06:27:31;;;;;;;;;;;10.00;99.90;;;;;;5138112;27;20279;-76
2023/04/01 06:29:57;;;;;;;;;;;;;;;;;;5116140;27;19919;-76
2023/04/01 06:32:22;;;;;;;;;;;;;;;;;;5131537;27;20370;-76
2023/04/01 06:34:48;;;;;;;;;;;;;;;;;;5115735;27;19992;-76
2023/04/01 06:37:35;;;;;;;;;;;10.00;99.90;;;;;;5115506;27;20006;-76
2023/04/01 06:40:03;;;;;;;;;;;;;;;;;;5114540;27;19915;-76
2023/04/01 06:42:46;;;;;;;;;;;10.10;99.90;;;;;;5116486;28;19915;-76
2023/04/01 06:45:18;;;;;;;;;;;9.80;99.90;;;;;;5116503;27;19919;-76
2023/04/01 06:47:44;;;;;;;;;;;;;;;;;;5099596;27;19966;-76
2023/04/01 06:50:10;;;;;;;;;;;;;;;;;;5098795;28;20383;-76
2023/04/01 06:52:49;;;;;;;;;;;10.00;99.90;;;;;;5116166;28;19933;-76
2023/04/01 06:55:14;;;;;;;;;;;;;;;;;;5116100;28;19916;-76
2023/04/01 06:57:52;;;;;;;;;;;10.10;99.90;;;;;;5116065;28;19922;-76
2023/04/01 07:00:18;;;;;;;;;;;10.10;99.90;;;;;;5150661;27;19966;-76
2023/04/01 07:02:55;;;;;;;;;;;10.10;99.90;;;;;;5116125;28;19962;-76
2023/04/01 07:05:22;;;;;;;;;;;10.20;99.90;;;;;;5115991;28;20002;-76
2023/04/01 07:07:48;;;;;;;;;;;;;;;;;;5116758;27;19923;-76
2023/04/01 07:10:19;;;;;;;;;;;10.20;99.90;;;;;;5115869;27;20005;-76
2023/04/01 07:12:45;;;;;;;;;;;;;;;;;;5115603;28;20362;-76
2023/04/01 07:15:11;;;;;;;;;;;;;;;;;;5115930;28;19919;-76
2023/04/01 07:17:37;;;;;;;;;;;;;;;;;;5116128;28;19915;-77
2023/04/01 07:20:03;;;;;;;;;;;;;;;;;;5115539;28;19966;-75
2023/04/01 07:22:29;;;;;;;;;;;;;;;;;;5099412;27;19922;-76
2023/04/01 07:24:57;;;;;;;;;;;;;;;;;;5116107;28;20394;-76
2023/04/01 07:27:23;;;;;;;;;;;;;;;;;;5099237;28;19915;-76
2023/04/01 07:29:49;;;;;;;;;;;10.20;99.90;;;;;;5115659;28;19971;-76
2023/04/01 07:32:15;;;;;;;;;;;;;;;;;;5133302;28;19923;-76
2023/04/01 07:34:50;;;;;;;;;;;10.30;99.90;;;;;;5136472;27;19916;-76
2023/04/01 07:37:16;;;;;;;;;;;;;;;;;;5095781;28;19927;-76
2023/04/01 07:39:41;;;;;;;;;;;10.20;99.90;;;;;;5131023;27;19916;-77
2023/04/01 07:42:07;;;;;;;;;;;;;;;;;;5115640;28;20276;-76
2023/04/01 07:44:33;;;;;;;;;;;;;;;;;;5115713;28;20283;-76
2023/04/01 07:46:59;;;;;;;;;;;;;;;;;;5116088;28;19915;-77
2023/04/01 07:49:25;;;;;;;;;;;;;;;;;;5115384;28;19926;-76
2023/04/01 07:52:20;;;;;;;;;;;10.30;99.90;;;;;;5150226;27;19915;-76
2023/04/01 07:54:51;;;;;;;;;;;10.30;99.90;;;;;;5053852;28;19974;-76
2023/04/01 07:57:20;;;;;;;;;;;10.50;99.90;;;;;;5116182;28;19962;-76
2023/04/01 07:59:46;;;;;;;;;;;;;;;;;;5115436;28;20005;-76
2023/04/01 08:02:11;;;;;;;;;;;10.30;99.90;;;;;;5116472;27;19966;-76
2023/04/01 08:04:37;;;;;;;;;;;;;;;;;;5118871;27;19915;-76
2023/04/01 08:07:15;;;;;;;;;;;10.60;99.90;;;;;;5119466;27;19919;-76
2023/04/01 08:09:41;;;;;;;;;;;10.70;99.90;;;;;;5119117;27;20017;-77
2023/04/01 08:12:07;;;;;;;;;;;;;;;;;;5119530;27;19951;-76
2023/04/01 08:14:33;;;;;;;;;;;;;;;;;;5119199;27;19923;-78
2023/04/01 08:17:00;;;;;;;;;;;;;;;;;;5119388;27;19919;-78
2023/04/01 08:19:26;;;;;;;;;;;;;;;;;;5118642;27;20363;-77
2023/04/01 08:21:52;;;;;;;;;;;10.40;99.90;;;;;;5118779;27;19959;-77
2023/04/01 08:24:18;;;;;;;;;;;;;;;;;;5084016;27;19960;-77
2023/04/01 08:26:45;;;;;;;;;;;;;;;;;;5118698;27;19915;-77
2023/04/01 08:29:17;;;;;;;;;;;10.50;99.90;;;;;;5115388;27;20448;-78
2023/04/01 08:31:43;;;;;;;;;;;;;;;;;;5119402;27;19919;-77
2023/04/01 08:34:16;;;;;;;;;;;10.50;99.90;;;;;;5136793;27;19922;-77
2023/04/01 08:36:50;;;;;;;;;;;10.40;99.90;;;;;;5123675;27;20363;-78
2023/04/01 08:39:16;;;;;;;;;;;;;;;;;;5117564;27;20031;-77
2023/04/01 08:41:42;;;;;;;;;;;;;;;;;;5126711;27;19915;-77
2023/04/01 08:44:26;;;;;;;;;;;10.40;99.90;;;;;;5118262;27;19915;-77
2023/04/01 08:47:01;;;;;;;;;;;10.30;99.90;;;;;;5125751;27;19916;-76
2023/04/01 08:49:30;;;;;;;;;;;10.50;99.90;;;;;;5116170;27;19926;-77
2023/04/01 08:51:56;;;;;;;;;;;;;;;;;;5112268;27;19926;-77
2023/04/01 08:54:21;;;;;;;;;;;;;;;;;;5126438;27;20014;-77
2023/04/01 08:56:47;;;;;;;;;;;;;;;;;;5118056;27;19915;-76
2023/04/01 08:59:14;;;;;;;;;;;;;;;;;;5116972;27;20426;-77
2023/04/01 09:01:42;;;;;;;;;;;10.70;99.90;;;;;;5117581;27;20000;-77
2023/04/01 09:04:08;;;;;;;;;;;;;;;;;;5143792;27;19994;-77
2023/04/01 09:06:37;;;;;;;;;;;10.90;99.90;;;;;;5117122;27;19957;-77
2023/04/01 09:09:09;;;;;;;;;;;11.10;99.90;;;;;;5117684;27;19968;-73
2023/04/01 09:11:40;;;;;;;;;;;10.90;99.90;;;;;;5141083;27;19924;-78
2023/04/01 09:14:06;;;;;;;;;;;;;;;;;;5114665;27;19915;-77
2023/04/01 09:16:32;;;;;;;;;;;10.80;99.90;;;;;;5117062;27;19997;-77
2023/04/01 09:19:21;;;;;;;;;;;10.90;99.90;;;;;;5117705;27;19922;-77
2023/04/01 09:22:01;;;;;;;;;;;11.10;99.90;;;;;;5105111;27;19998;-77
2023/04/01 09:24:42;;;;;;;;;;;11.00;99.90;;;;;;5117496;27;19964;-78
2023/04/01 09:27:20;;;;;;;;;;;10.90;99.90;;;;;;5115176;27;19915;-76
2023/04/01 09:29:48;;;;;;;;;;;10.90;99.90;;;;;;5115280;27;19926;-77
2023/04/01 09:32:14;;;;;;;;;;;;;;;;;;5118512;27;19915;-77
2023/04/01 09:34:40;;;;;;;;;;;;;;;;;;5118575;27;19930;-77
2023/04/01 09:37:06;;;;;;;;;;;;;;;;;;5117850;27;19922;-77
2023/04/01 09:39:32;;;;;;;;;;;;;;;;;;5116663;27;19915;-76
2023/04/01 09:41:58;;;;;;;;;;;;;;;;;;5116769;27;19967;-77
2023/04/01 09:44:24;;;;;;;;;;;;;;;;;;5116436;27;19922;-77
2023/04/01 09:46:50;;;;;;;;;;;;;;;;;;5099629;27;19994;-77
2023/04/01 09:49:16;;;;;;;;;;;;;;;;;;5115991;27;19998;-77
2023/04/01 09:51:42;;;;;;;;;;;;;;;;;;5116267;27;19915;-77
2023/04/01 09:54:08;;;;;;;;;;;;;;;;;;5115454;27;20389;-78
2023/04/01 09:56:34;;;;;;;;;;;;;;;;;;5099332;27;20328;-78
2023/04/01 09:59:00;;;;;;;;;;;;;;;;;;5098778;27;19915;-77
2023/04/01 10:01:27;;;;;;;;;;;10.90;99.90;;;;;;5115948;27;20010;-77
2023/04/01 10:03:53;;;;;;;;;;;;;;;;;;5099038;27;20409;-77
2023/04/01 10:06:20;;;;;;;;;;;;;;;;;;5109422;27;19915;-78
2023/04/01 10:08:51;;;;;;;;;;;;;;;;;;5134045;27;19916;-78
2023/04/01 10:11:17;;;;;;;;;;;;;;;;;;5115652;27;19946;-77
2023/04/01 10:13:43;;;;;;;;;;;;;;;;;;5116326;27;19915;-77
2023/04/01 10:16:10;;;;;;;;;;;;;;;;;;5116346;27;20002;-76
2023/04/01 10:18:36;;;;;;;;;;;;;;;;;;5099496;27;19919;-77
2023/04/01 10:21:02;;;;;;;;;;;;;;;;;;5115803;27;19922;-76
2023/04/01 10:23:46;;;;;;;;;;;10.90;99.90;;;;;;5115296;27;19915;-78
2023/04/01 10:26:12;;;;;;;;;;;;;;;;;;5116037;27;20002;-78
2023/04/01 10:28:38;;;;;;;;;;;;;;;;;;5116421;27;19985;-79
2023/04/01 10:31:22;;;;;;;;;;;10.80;99.90;;;;;;5115553;27;19919;-78
2023/04/01 10:33:48;;;;;;;;;;;;;;;;;;5117058;27;20366;-79
2023/04/01 10:36:14;;;;;;;;;;;;;;;;;;5116620;27;19934;-78
2023/04/01 10:38:40;;;;;;;;;;;;;;;;;;5116839;27;19922;-78
2023/04/01 10:41:06;;;;;;;;;;;;;;;;;;5116164;28;20374;-78
2023/04/01 10:43:32;;;;;;;;;;;;;;;;;;5115676;27;19916;-78
2023/04/01 10:46:28;;;;;;;;;;;10.70;99.90;;;;;;5098997;27;19915;-78
2023/04/01 10:48:55;;;;;;;;;;;;;;;;;;5116276;27;20331;-78
2023/04/01 10:51:21;;;;;;;;;;;;;;;;;;5100679;28;19919;-78
2023/04/01 10:53:47;;;;;;;;;;;;;;;;;;5118764;28;19970;-78
2023/04/01 10:56:12;;;;;;;;;;;10.50;99.90;;;;;;5101315;28;19921;-78
2023/04/01 10:58:39;;;;;;;;;;;;;;;;;;5121707;28;19915;-79
2023/04/01 11:01:04;;;;;;;;;;;10.70;99.90;;;;;;5116374;27;19974;-78
2023/04/01 11:03:33;;;;;;;;;;;10.60;99.90;;;;;;5143896;27;19916;-78
2023/04/01 11:06:05;;;;;;;;;;;10.60;99.90;;;;;;5115487;28;19922;-78
2023/04/01 11:08:31;;;;;;;;;;;;;;;;;;5098538;28;19923;-78
2023/04/01 11:11:03;;;;;;;;;;;10.60;99.90;;;;;;5115356;28;19926;-78
2023/04/01 11:13:34;;;;;;;;;;;10.60;99.90;;;;;;5098153;28;19961;-77
2023/04/01 11:16:12;;;;;;;;;;;10.60;99.90;;;;;;5131964;27;20359;-78
2023/04/01 11:18:38;;;;;;;;;;;;;;;;;;5115218;28;19915;-78
2023/04/01 11:21:15;;;;;;;;;;;10.70;99.90;;;;;;5098197;28;19923;-78
2023/04/01 11:23:41;;;;;;;;;;;;;;;;;;5115354;28;19960;-77
2023/04/01 11:26:26;;;;;;;;;;;10.60;99.90;;;;;;5116048;28;19967;-78
2023/04/01 11:28:52;;;;;;;;;;;;;;;;;;5150266;27;20010;-78
2023/04/01 11:31:17;;;;;;;;;;;;;;;;;;5115558;28;20026;-78
2023/04/01 11:33:43;;;;;;;;;;;;;;;;;;5098039;28;19923;-79
2023/04/01 11:36:10;;;;;;;;;;;;;;;;;;5114998;28;19915;-78
2023/04/01 11:38:36;;;;;;;;;;;;;;;;;;5118050;27;19992;-79
2023/04/01 11:41:02;;;;;;;;;;;;;;;;;;5102303;27;20331;-78
2023/04/01 11:43:28;;;;;;;;;;;;;;;;;;5123233;27;20013;-79
2023/04/01 11:45:54;;;;;;;;;;;;;;;;;;5110223;27;19915;-77
2023/04/01 11:48:20;;;;;;;;;;;;;;;;;;5121997;27;19923;-79
2023/04/01 11:50:46;;;;;;;;;;;;;;;;;;5121553;27;19919;-78
2023/04/01 11:53:19;;;;;;;;;;;10.60;99.90;;;;;;5117792;27;19935;-78
2023/04/01 11:55:45;;;;;;;;;;;;;;;;;;5121659;27;19923;-79
2023/04/01 11:58:10;;;;;;;;;;;10.90;99.90;;;;;;5120421;27;19915;-78
2023/04/01 12:00:36;;;;;;;;;;;;;;;;;;5103007;27;19923;-79
2023/04/01 12:03:02;;;;;;;;;;;;;;;;;;5127881;27;19915;-78
2023/04/01 12:05:28;;;;;;;;;;;;;;;;;;5126606;27;19915;-78
2023/04/01 12:07:55;;;;;;;;;;;;;;;;;;5130520;27;20340;-78
2023/04/01 12:10:21;;;;;;;;;;;;;;;;;;5121027;27;19919;-77
2023/04/01 12:13:00;;;;;;;;;;;10.90;99.90;;;;;;5123389;27;19950;-78
2023/04/01 12:15:25;;;;;;;;;;;10.80;99.90;;;;;;5125472;27;19919;-78
2023/04/01 12:17:51;;;;;;;;;;;10.80;99.90;;;;;;5120877;27;19962;-78
2023/04/01 12:20:17;;;;;;;;;;;;;;;;;;5119088;27;20066;-78
2023/04/01 12:22:43;;;;;;;;;;;;;;;;;;5118901;27;20002;-79
2023/04/01 12:25:14;;;;;;;;;;;10.90;99.90;;;;;;5119057;27;19916;-78
2023/04/01 12:27:59;;;;;;;;;;;10.90;99.90;;;;;;5101714;27;19915;-78
2023/04/01 12:30:40;;;;;;;;;;;10.70;99.90;;;;;;5126818;27;19919;-78
2023/04/01 12:33:05;;;;;;;;;;;;;;;;;;5117511;27;19967;-79
2023/04/01 12:35:31;;;;;;;;;;;;;;;;;;5118939;27;19915;-79
2023/04/01 12:37:57;;;;;;;;;;;;;;;;;;5101208;27;20399;-78
2023/04/01 12:40:23;;;;;;;;;;;;;;;;;;5118815;27;19915;-78
2023/04/01 12:42:50;;;;;;;;;;;;;;;;;;5118066;27;19922;-78
2023/04/01 12:45:25;;;;;;;;;;;10.60;99.90;;;;;;5132987;27;19916;-79
2023/04/01 12:47:56;;;;;;;;;;;10.40;99.90;;;;;;5132676;27;19938;-79
2023/04/01 12:50:22;;;;;;;;;;;10.60;99.90;;;;;;5115310;28;19919;-71
2023/04/01 12:53:03;;;;;;;;;;;10.50;99.90;;;;;;5115052;28;19915;-71
2023/04/01 12:55:29;;;;;;;;;;;;;;;;;;5131684;27;19915;-71
2023/04/01 12:57:55;;;;;;;;;;;;;;;;;;5131968;27;19916;-71
2023/04/01 13:00:21;;;;;;;;;;;;;;;;;;5131945;27;19915;-70
2023/04/01 13:02:47;;;;;;;;;;;;;;;;;;5131889;27;19962;-71
2023/04/01 13:05:13;;;;;;;;;;;;;;;;;;5131934;27;19916;-71
2023/04/01 13:07:39;;;;;;;;;;;;;;;;;;5115239;28;19922;-71
2023/04/01 13:10:05;;;;;;;;;;;;;;;;;;5131955;27;20387;-71
2023/04/01 13:12:31;;;;;;;;;;;;;;;;;;5131869;27;20286;-71
2023/04/01 13:14:57;;;;;;;;;;;;;;;;;;5131630;27;19919;-72
2023/04/01 13:17:23;;;;;;;;;;;;;;;;;;5131645;27;19942;-72
2023/04/01 13:19:49;;;;;;;;;;;;;;;;;;5131432;27;19915;-72
2023/04/01 13:22:15;;;;;;;;;;;;;;;;;;5131516;27;19916;-72
2023/04/01 13:24:41;;;;;;;;;;;;;;;;;;5114525;28;19927;-72
2023/04/01 13:27:07;;;;;;;;;;;;;;;;;;5131302;27;19920;-71
2023/04/01 13:29:33;;;;;;;;;;;;;;;;;;5131037;27;19928;-72
2023/04/01 13:31:59;;;;;;;;;;;;;;;;;;5131184;27;19919;-71
2023/04/01 13:34:25;;;;;;;;;;;;;;;;;;5134148;27;19915;-71
2023/04/01 13:36:51;;;;;;;;;;;;;;;;;;5116886;27;20260;-72
2023/04/01 13:39:26;;;;;;;;;;;9.90;99.90;;;;;;5100095;27;20313;-71
2023/04/01 13:41:52;;;;;;;;;;;;;;;;;;5117155;27;19922;-72
2023/04/01 13:44:18;;;;;;;;;;;;;;;;;;5093506;27;19916;-71
2023/04/01 13:46:44;;;;;;;;;;;;;;;;;;5126062;27;19919;-71
2023/04/01 13:49:10;;;;;;;;;;;;;;;;;;5141003;27;19922;-72
2023/04/01 13:51:54;;;;;;;;;;;10.00;99.90;;;;;;5115947;27;19919;-71
2023/04/01 13:54:20;;;;;;;;;;;;;;;;;;5116260;27;20641;-72
2023/04/01 13:56:46;;;;;;;;;;;;;;;;;;5115703;27;19955;-71
2023/04/01 13:59:27;;;;;;;;;;;9.80;99.90;;;;;;5115405;27;19915;-72
2023/04/01 14:01:53;;;;;;;;;;;;;;;;;;5124760;27;19916;-72
2023/04/01 14:04:42;;;;;;;;;;;10.10;99.90;;;;;;5099276;27;20006;-78
2023/04/01 14:07:08;;;;;;;;;;;;;;;;;;5109962;27;19915;-79
2023/04/01 14:09:34;;;;;;;;;;;;;;;;;;5099278;27;19922;-79
2023/04/01 14:12:00;;;;;;;;;;;;;;;;;;5114604;27;19920;-79
2023/04/01 14:14:26;;;;;;;;;;;;;;;;;;5116260;27;19915;-79
2023/04/01 14:16:54;;;;;;;;;;;;;;;;;;5115875;27;19960;-79
2023/04/01 14:19:20;;;;;;;;;;;;;;;;;;5115800;27;19915;-79
2023/04/01 14:21:45;;;;;;;;;;;;;;;;;;5115937;27;19941;-78
2023/04/01 14:24:12;;;;;;;;;;;;;;;;;;5140897;27;19923;-79
2023/04/01 14:26:38;;;;;;;;;;;;;;;;;;5098369;27;19915;-79
2023/04/01 14:29:04;;;;;;;;;;;;;;;;;;5115670;27;19915;-71
2023/04/01 14:31:30;;;;;;;;;;;;;;;;;;5115167;27;20006;-71
2023/04/01 14:34:14;;;;;;;;;;;9.80;99.90;;;;;;5098269;27;19916;-71
2023/04/01 14:36:58;;;;;;;;;;;9.60;99.90;;;;;;5115335;27;20053;-71
2023/04/01 14:39:25;;;;;;;;;;;;;;;;;;5098791;27;20314;-79
2023/04/01 14:41:51;;;;;;;;;;;;;;;;;;5115370;28;19915;-79
2023/04/01 14:44:17;;;;;;;;;;;;;;;;;;5115930;27;19922;-79
2023/04/01 14:46:42;;;;;;;;;;;9.40;99.90;;;;;;5115359;28;20024;-79
2023/04/01 14:49:20;;;;;;;;;;;9.40;99.90;;;;;;5098816;27;19940;-78
2023/04/01 14:51:46;;;;;;;;;;;;;;;;;;5125048;27;19919;-79
2023/04/01 14:54:11;;;;;;;;;;;9.60;99.90;;;;;;5116302;28;19923;-79
2023/04/01 14:56:42;;;;;;;;;;;9.40;99.90;;;;;;5099702;27;20040;-79
2023/04/01 14:59:17;;;;;;;;;;;9.50;99.90;;;;;;5112628;28;19915;-78
2023/04/01 15:01:43;;;;;;;;;;;;;;;;;;5160675;27;19915;-78
2023/04/01 15:04:29;;;;;;;;;;;9.40;99.90;;;;;;5116076;28;21087;-79
2023/04/01 15:06:55;;;;;;;;;;;;;;;;;;5114738;27;20617;-79
2023/04/01 15:09:21;;;;;;;;;;;;;;;;;;5115148;28;19968;-79
2023/04/01 15:12:02;;;;;;;;;;;9.40;99.90;;;;;;5117026;27;19919;-79
2023/04/01 15:14:29;;;;;;;;;;;;;;;;;;5119826;27;19938;-79
2023/04/01 15:17:25;;;;;;;;;;;9.30;99.90;;;;;;5119168;27;19916;-79
2023/04/01 15:19:51;;;;;;;;;;;;;;;;;;5080971;27;20359;-78
2023/04/01 15:22:16;;;;;;;;;;;;;;;;;;5119537;27;19944;-79
2023/04/01 15:24:42;;;;;;;;;;;;;;;;;;5106709;27;20379;-79
2023/04/01 15:27:08;;;;;;;;;;;;;;;;;;5118760;27;19919;-79
2023/04/01 15:29:50;;;;;;;;;;;8.90;99.90;;;;;;5127689;27;19926;-79
2023/04/01 15:32:34;;;;;;;;;;;9.00;99.90;;;;;;5119421;27;19934;-73
2023/04/01 15:35:09;;;;;;;;;;;9.00;99.90;;;;;;5116932;27;19911;-72
2023/04/01 15:37:36;;;;;;;;;;;;;;;;;;5102376;27;19915;-71
2023/04/01 15:40:01;;;;;;;;;;;;;;;;;;5119470;27;19916;-71
2023/04/01 15:42:27;;;;;;;;;;;;;;;;;;5118878;27;20491;-71
2023/04/01 15:44:53;;;;;;;;;;;;;;;;;;5096740;27;19915;-72
2023/04/01 15:47:19;;;;;;;;;;;;;;;;;;5144151;27;19934;-72
2023/04/01 15:49:45;;;;;;;;;;;;;;;;;;5118869;27;19915;-71
2023/04/01 15:52:11;;;;;;;;;;;;;;;;;;5118765;27;19919;-71
2023/04/01 15:54:37;;;;;;;;;;;;;;;;;;5116846;27;19938;-71
2023/04/01 15:57:03;;;;;;;;;;;;;;;;;;5118655;27;19921;-71